Time;durP1;ratioP1;P1;durP2;ratioP2;P2;SDS_P1;SDS_P2;PMS_P1;PMS_P2;Temp;Humidity;BMP_temperature;BMP_pressure;BME280_temperature;BME280_humidity;BME280_pressure;Samples;Min_cycle;Max_cycle;Signal;HPM_P1;HPM_P2
2024/04/01 00:01:53;;;;;;;;;11.50;4.50;;;;;15.68;64.05;98638.03;6307068;20;2782579;-41
2024/04/01 00:04:20;;;;;;;;;12.00;8.50;;;;;15.76;62.86;98632.75;6281754;20;2769080;-42
2024/04/01 00:06:46;;;;;;;;;17.50;12.00;;;;;15.66;63.01;98630.06;6282165;20;2797184;-43
2024/04/01 00:09:14;;;;;;;;;16.00;12.67;;;;;15.68;63.25;98624.50;6274160;20;2809754;-42
2024/04/01 00:11:41;;;;;;;;;19.33;10.67;;;;;15.47;63.79;98620.22;6306516;20;3538841;-44
2024/04/01 00:14:08;;;;;;;;;19.00;12.00;;;;;15.76;62.79;98627.34;6308287;20;2826780;-41
2024/04/01 00:16:35;;;;;;;;;15.50;9.50;;;;;15.81;62.52;98616.91;6308262;20;2798340;-42
2024/04/01 00:19:02;;;;;;;;;17.00;8.00;;;;;15.76;62.56;98624.63;6280096;20;2780692;-41
2024/04/01 00:21:29;;;;;;;;;17.67;8.33;;;;;15.66;62.48;98615.69;6275256;20;2796138;-43
2024/04/01 00:23:56;;;;;;;;;14.50;11.50;;;;;15.84;61.96;98613.88;6310413;20;2797255;-41
2024/04/01 00:26:23;;;;;;;;;21.50;13.00;;;;;15.80;62.62;98616.06;6276702;20;2824270;-41
2024/04/01 00:28:50;;;;;;;;;16.00;9.50;;;;;15.96;62.36;98623.47;6275719;20;2803493;-43
2024/04/01 00:31:16;;;;;;;;;12.00;8.00;;;;;16.09;61.56;98630.34;6276094;20;2752459;-42
2024/04/01 00:33:44;;;;;;;;;16.00;9.67;;;;;15.95;61.68;98635.28;6273178;20;3513841;-42
2024/04/01 00:36:10;;;;;;;;;13.00;9.50;;;;;15.87;61.84;98642.50;6305055;20;2790909;-41
2024/04/01 00:38:38;;;;;;;;;22.67;14.00;;;;;15.82;61.71;98642.94;6273548;20;2837885;-42
2024/04/01 00:41:04;;;;;;;;;16.50;8.00;;;;;15.82;62.24;98639.41;6309972;20;2791951;-42
2024/04/01 00:43:31;;;;;;;;;22.00;9.50;;;;;15.75;62.03;98628.34;6278848;20;2812822;-42
2024/04/01 00:45:57;;;;;;;;;12.50;8.50;;;;;15.95;61.48;98629.03;6280759;20;2756942;-41
2024/04/01 00:48:24;;;;;;;;;14.00;9.00;;;;;16.02;61.42;98620.16;6276228;20;2776434;-42
2024/04/01 00:50:51;;;;;;;;;23.50;11.00;;;;;16.09;60.89;98619.50;6273293;20;2837817;-42
2024/04/01 00:53:20;;;;;;;;;14.33;8.00;;;;;16.04;61.34;98611.03;6272157;20;2780576;-43
2024/04/01 00:55:48;;;;;;;;;16.00;11.50;;;;;16.07;60.83;98608.84;6305289;20;2803546;-41
2024/04/01 00:58:16;;;;;;;;;17.00;12.50;;;;;16.15;60.83;98595.38;6275490;20;2805495;-43
2024/04/01 01:00:46;;;;;;;;;14.33;8.00;;;;;16.07;60.98;98594.47;6268888;20;3495055;-46
2024/04/01 01:03:13;;;;;;;;;21.00;13.00;;;;;16.10;61.17;98592.28;6303291;20;2481554;-46
2024/04/01 01:05:40;;;;;;;;;18.00;10.00;;;;;16.12;60.86;98597.56;6275742;20;3534064;-45
2024/04/01 01:08:08;;;;;;;;;17.67;7.33;;;;;16.02;61.59;98584.94;6272273;20;3512755;-44
2024/04/01 01:10:36;;;;;;;;;20.00;12.67;;;;;16.15;61.21;98583.69;6303623;20;3553937;-45
2024/04/01 01:13:03;;;;;;;;;15.33;9.33;;;;;16.29;60.98;98583.13;6274215;20;2767001;-43
2024/04/01 01:15:30;;;;;;;;;18.00;6.00;;;;;16.39;60.79;98589.28;6308085;20;2811797;-44
2024/04/01 01:17:57;;;;;;;;;19.67;10.33;;;;;16.28;61.22;98584.13;6274873;20;2821114;-46
2024/04/01 01:20:25;;;;;;;;;14.67;11.67;;;;;16.40;60.41;98585.59;6303107;20;3516971;-42
2024/04/01 01:22:52;;;;;;;;;17.00;10.00;;;;;16.54;60.25;98584.16;6304754;20;2477339;-42
2024/04/01 01:25:19;;;;;;;;;22.00;9.33;;;;;16.49;59.87;98577.53;6272550;20;3545044;-43
2024/04/01 01:27:46;;;;;;;;;22.00;13.33;;;;;16.65;59.68;98577.59;6277949;20;2827404;-43
2024/04/01 01:30:17;;;;;;;;;23.33;13.33;;;;;16.59;59.79;98578.25;6305605;20;3573247;-42
2024/04/01 01:32:55;;;;;;;;;18.67;10.00;;;;;16.55;59.43;98574.16;6274569;20;3536735;-44
2024/04/01 01:35:25;;;;;;;;;14.00;10.00;;;;;16.73;58.45;98566.81;6301207;20;2789008;-43
2024/04/01 01:37:53;;;;;;;;;26.50;12.00;;;;;16.84;58.00;98566.56;6301295;20;2475448;-42
2024/04/01 01:40:21;;;;;;;;;23.33;9.00;;;;;16.95;57.56;98562.72;6273138;20;3534683;-40
2024/04/01 01:42:48;;;;;;;;;19.00;11.00;;;;;16.96;57.72;98558.16;6272221;20;3553354;-43
2024/04/01 01:45:15;;;;;;;;;26.00;11.00;;;;;16.94;57.10;98552.88;6269791;20;2477619;-43
2024/04/01 01:47:42;;;;;;;;;23.67;12.67;;;;;16.95;57.54;98559.16;6276258;20;2825338;-42
2024/04/01 01:50:10;;;;;;;;;22.33;15.00;;;;;16.92;57.37;98557.63;6307452;20;2833752;-42
2024/04/01 01:52:38;;;;;;;;;21.33;12.00;;;;;17.00;56.75;98548.66;6304325;20;3563817;-43
2024/04/01 01:55:06;;;;;;;;;22.67;10.67;;;;;16.99;57.08;98546.97;6274358;20;3567040;-45
2024/04/01 01:57:34;;;;;;;;;24.67;11.33;;;;;16.97;56.71;98557.97;6272191;20;2475245;-42
2024/04/01 02:00:05;;;;;;;;;21.33;12.33;;;;;17.01;56.31;98539.50;6304009;20;2477417;-43
2024/04/01 02:02:33;;;;;;;;;27.67;13.00;;;;;17.23;55.22;98557.91;6303878;20;3560687;-41
2024/04/01 02:04:59;;;;;;;;;21.00;15.00;;;;;17.27;54.61;98562.00;6273524;20;2477408;-42
2024/04/01 02:07:27;;;;;;;;;19.33;15.00;;;;;17.40;54.07;98564.22;6272327;20;3554541;-41
2024/04/01 02:09:54;;;;;;;;;25.67;11.00;;;;;17.27;53.93;98551.16;6275806;20;2832661;-43
2024/04/01 02:12:22;;;;;;;;;24.00;12.00;;;;;17.41;53.74;98540.66;6303262;20;2843037;-41
2024/04/01 02:14:49;;;;;;;;;28.00;11.33;;;;;17.29;53.88;98543.66;6272557;20;2475308;-42
2024/04/01 02:17:16;;;;;;;;;20.00;11.00;;;;;17.50;52.96;98550.50;6301584;20;3553502;-42
2024/04/01 02:19:46;;;;;;;;;32.00;13.50;;;;;17.44;53.20;98532.19;6270817;20;2475318;-43
2024/04/01 02:22:17;;;;;;;;;28.00;13.67;;;;;17.42;52.91;98523.38;6274165;20;2830600;-41
2024/04/01 02:24:44;;;;;;;;;21.50;13.00;;;;;17.46;52.75;98528.28;6301706;20;2475490;-42
2024/04/01 02:27:11;;;;;;;;;27.00;15.00;;;;;17.41;53.24;98524.38;6275107;20;2841067;-43
2024/04/01 02:29:39;;;;;;;;;25.00;12.00;;;;;17.38;53.30;98514.72;6268857;20;2837841;-43
2024/04/01 02:32:06;;;;;;;;;25.00;14.00;;;;;17.34;53.42;98524.19;6273984;20;2844121;-43
2024/04/01 02:34:34;;;;;;;;;19.00;13.00;;;;;17.34;53.38;98538.59;6300276;20;2475287;-42
2024/04/01 02:37:03;;;;;;;;;17.00;12.00;;;;;17.33;52.79;98527.94;6270948;20;3544180;-41
2024/04/01 02:39:31;;;;;;;;;25.00;15.00;;;;;17.28;53.44;98543.84;6270200;20;2840998;-43
2024/04/01 02:41:58;;;;;;;;;29.33;14.00;;;;;17.22;53.83;98539.94;6273596;20;2842986;-42
2024/04/01 02:44:25;;;;;;;;;19.00;14.00;;;;;17.19;53.64;98545.66;6301901;20;2475398;-42
2024/04/01 02:46:53;;;;;;;;;29.00;16.33;;;;;17.05;54.42;98555.28;6271972;20;3587783;-42
2024/04/01 02:49:20;;;;;;;;;30.50;15.50;;;;;16.98;54.38;98556.97;6268756;20;2848234;-42
2024/04/01 02:51:48;;;;;;;;;22.33;16.00;;;;;16.81;54.87;98566.03;6270520;20;3572222;-42
2024/04/01 02:54:15;;;;;;;;;37.00;18.33;;;;;17.07;53.43;98557.84;6269573;20;2475360;-44
2024/04/01 02:56:42;;;;;;;;;19.00;15.50;;;;;16.50;56.24;98554.81;6300775;20;2477338;-43
2024/04/01 02:59:09;;;;;;;;;24.33;14.33;;;;;16.96;53.07;98560.88;6279354;20;2838800;-42
2024/04/01 03:01:39;;;;;;;;;28.00;12.50;;;;;17.09;52.59;98558.56;6304993;20;2475343;-41
2024/04/01 03:04:07;;;;;;;;;23.00;14.00;;;;;16.99;53.60;98555.13;6276444;20;3570159;-42
2024/04/01 03:06:34;;;;;;;;;23.00;11.00;;;;;16.98;52.89;98545.25;6279238;20;2823216;-42
2024/04/01 03:09:02;;;;;;;;;19.00;14.00;;;;;17.07;52.43;98553.28;6306746;20;2821159;-41
2024/04/01 03:11:28;;;;;;;;;19.50;11.50;;;;;17.05;52.19;98543.59;6277365;20;2481558;-42
2024/04/01 03:13:56;;;;;;;;;19.50;15.00;;;;;16.99;52.45;98541.56;6277181;20;2823283;-42
2024/04/01 03:16:23;;;;;;;;;19.00;13.33;;;;;16.94;52.06;98533.91;6276744;20;2805503;-41
2024/04/01 03:18:51;;;;;;;;;17.00;16.00;;;;;16.99;51.70;98520.72;6306016;20;3556542;-41
2024/04/01 03:21:18;;;;;;;;;24.33;15.00;;;;;17.06;51.26;98520.88;6279024;20;2821117;-41
2024/04/01 03:23:45;;;;;;;;;30.00;17.33;;;;;17.06;50.96;98526.31;6307885;20;2852513;-41
2024/04/01 03:26:13;;;;;;;;;20.50;10.50;;;;;17.31;49.84;98505.53;6304460;20;2480069;-42
2024/04/01 03:28:40;;;;;;;;;17.00;12.00;;;;;17.35;49.85;98504.16;6274482;20;3541022;-42
2024/04/01 03:31:07;;;;;;;;;20.00;13.00;;;;;17.28;50.16;98504.00;6274853;20;2477342;-41
2024/04/01 03:33:34;;;;;;;;;20.00;13.00;;;;;17.38;49.53;98498.44;6274331;20;2475313;-41
2024/04/01 03:36:02;;;;;;;;;18.00;13.00;;;;;17.51;48.79;98493.38;6273669;20;3537814;-41
2024/04/01 03:38:30;;;;;;;;;26.33;13.33;;;;;17.67;48.26;98497.94;6274070;20;3575380;-42
2024/04/01 03:40:56;;;;;;;;;24.00;13.00;;;;;17.78;48.02;98497.59;6268698;20;2475336;-41
2024/04/01 03:43:24;;;;;;;;;25.33;13.33;;;;;17.80;47.54;98493.91;6275166;20;2832667;-41
2024/04/01 03:45:59;;;;;;;;;17.33;11.67;;;;;17.73;47.70;98483.69;6304590;20;3540940;-42
2024/04/01 03:48:28;;;;;;;;;21.67;13.33;;;;;17.70;48.23;98492.19;6273646;20;3560685;-41
2024/04/01 03:50:55;;;;;;;;;16.00;8.33;;;;;17.78;48.07;98492.19;6276895;20;2810710;-41
2024/04/01 03:53:22;;;;;;;;;21.67;13.00;;;;;17.57;48.33;98488.28;6304043;20;2483645;-42
2024/04/01 03:55:49;;;;;;;;;26.00;17.00;;;;;17.58;48.02;98493.53;6303564;20;2479877;-42
2024/04/01 03:58:16;;;;;;;;;20.67;10.00;;;;;17.89;47.47;98492.88;6274869;20;3550648;-41
2024/04/01 04:00:44;;;;;;;;;20.33;15.33;;;;;17.78;47.53;98494.91;6274764;20;2830595;-42
2024/04/01 04:03:11;;;;;;;;;20.00;10.33;;;;;17.74;47.36;98496.25;6307430;20;3550312;-41
2024/04/01 04:05:39;;;;;;;;;20.00;12.00;;;;;17.96;46.96;98491.19;6274882;20;3548184;-42
2024/04/01 04:08:06;;;;;;;;;20.00;10.67;;;;;17.89;47.08;98491.03;6272334;20;3547149;-41
2024/04/01 04:10:35;;;;;;;;;12.60;5.80;;;;;18.01;46.81;98487.94;6297580;20;2787877;-41
2024/04/01 04:13:02;;;;;;;;;16.67;11.00;;;;;17.99;46.84;98485.41;6277315;20;3529486;-42
2024/04/01 04:15:30;;;;;;;;;21.67;10.67;;;;;17.86;46.66;98495.97;6306240;20;2829588;-43
2024/04/01 04:17:57;;;;;;;;;15.33;9.67;;;;;17.92;46.89;98495.25;6304002;20;3516939;-43
2024/04/01 04:20:24;;;;;;;;;16.00;9.33;;;;;18.07;46.01;98498.16;6309538;20;2791013;-41
2024/04/01 04:22:52;;;;;;;;;26.33;12.33;;;;;18.08;45.75;98500.66;6301884;20;2475316;-42
2024/04/01 04:25:19;;;;;;;;;20.00;12.33;;;;;18.11;45.81;98499.47;6305314;20;3558591;-42
2024/04/01 04:27:47;;;;;;;;;15.00;11.00;;;;;18.04;45.82;98499.34;6274781;20;3514862;-42
2024/04/01 04:30:14;;;;;;;;;20.00;9.00;;;;;18.01;46.26;98494.25;6310302;20;2795295;-42
2024/04/01 04:32:43;;;;;;;;;23.33;10.67;;;;;17.97;46.26;98499.16;6276009;20;3563825;-43
2024/04/01 04:35:13;;;;;;;;;13.67;11.00;;;;;18.04;45.91;98493.06;6271536;20;3523371;-43
2024/04/01 04:37:40;;;;;;;;;29.33;14.00;;;;;17.99;46.10;98485.41;6268516;20;2475362;-42
2024/04/01 04:40:10;;;;;;;;;19.33;11.67;;;;;17.94;45.88;98490.50;6306799;20;2824468;-42
2024/04/01 04:42:37;;;;;;;;;18.33;12.67;;;;;17.97;46.44;98488.28;6303616;20;3548179;-43
2024/04/01 04:45:04;;;;;;;;;21.00;11.50;;;;;18.08;46.14;98489.81;6279138;20;2822251;-42
2024/04/01 04:47:31;;;;;;;;;20.00;10.00;;;;;18.11;46.37;98492.16;6271728;20;2475300;-44
2024/04/01 04:49:57;;;;;;;;;17.00;10.50;;;;;17.95;46.43;98508.50;6280122;20;2809676;-42
2024/04/01 04:52:25;;;;;;;;;13.00;11.33;;;;;17.89;46.57;98511.91;6273637;20;3509642;-42
2024/04/01 04:54:51;;;;;;;;;21.00;13.00;;;;;17.85;46.94;98518.69;6306801;20;2815959;-42
2024/04/01 04:57:19;;;;;;;;;19.00;11.67;;;;;17.86;46.63;98514.97;6274051;20;2836842;-42
2024/04/01 04:59:48;;;;;;;;;17.00;8.33;;;;;18.00;46.78;98525.13;6305618;20;3504406;-43
2024/04/01 05:02:15;;;;;;;;;22.33;12.67;;;;;17.78;47.53;98515.78;6303189;20;2834682;-42
2024/04/01 05:04:43;;;;;;;;;19.67;13.00;;;;;18.01;47.07;98532.28;6307195;20;2824268;-42
2024/04/01 05:07:09;;;;;;;;;18.00;10.50;;;;;18.02;46.98;98525.81;6304939;20;2473303;-42
2024/04/01 05:09:36;;;;;;;;;13.00;8.50;;;;;18.04;47.05;98526.50;6276711;20;2776421;-41
2024/04/01 05:12:05;;;;;;;;;17.67;9.67;;;;;17.97;47.05;98529.03;6275223;20;3523257;-44
2024/04/01 05:14:33;;;;;;;;;20.33;12.00;;;;;18.15;46.59;98531.56;6304619;20;3561225;-42
2024/04/01 05:17:00;;;;;;;;;15.33;11.00;;;;;18.23;46.97;98530.72;6273801;20;2804441;-42
2024/04/01 05:19:27;;;;;;;;;21.33;13.00;;;;;18.29;46.42;98524.59;6304787;20;2825275;-42
2024/04/01 05:21:56;;;;;;;;;22.67;12.00;;;;;18.37;46.22;98529.16;6307094;20;2832696;-42
2024/04/01 05:24:23;;;;;;;;;19.50;11.50;;;;;18.49;46.18;98522.34;6303961;20;3438792;-42
2024/04/01 05:26:50;;;;;;;;;20.33;12.00;;;;;18.49;45.31;98516.06;6304650;20;2818012;-43
2024/04/01 05:29:17;;;;;;;;;16.33;11.00;;;;;18.64;45.50;98523.34;6303988;20;3538896;-42
2024/04/01 05:31:45;;;;;;;;;16.67;10.00;;;;;18.68;45.37;98522.97;6272415;20;2804549;-42
2024/04/01 05:34:12;;;;;;;;;11.50;10.00;;;;;18.78;45.08;98524.50;6307742;20;2779531;-42
2024/04/01 05:36:40;;;;;;;;;19.33;12.00;;;;;18.88;44.74;98529.75;6274963;20;2814876;-44
2024/04/01 05:39:06;;;;;;;;;13.50;9.50;;;;;18.90;44.55;98522.22;6303961;20;2781529;-43
2024/04/01 05:41:33;;;;;;;;;20.50;9.00;;;;;18.94;45.01;98529.03;6276198;20;2800303;-43
2024/04/01 05:44:00;;;;;;;;;10.00;7.00;;;;;19.02;44.60;98523.56;6279034;20;2764900;-42
2024/04/01 05:46:26;;;;;;;;;15.00;10.50;;;;;19.21;44.73;98518.69;6276952;20;2791954;-44
2024/04/01 05:48:54;;;;;;;;;16.00;10.33;;;;;19.42;44.50;98521.63;6271749;20;2795164;-42
2024/04/01 05:51:21;;;;;;;;;15.33;9.00;;;;;19.50;43.93;98518.84;6304254;20;3524255;-43
2024/04/01 05:53:47;;;;;;;;;15.50;8.00;;;;;19.78;43.56;98522.97;6308011;20;2774236;-44
2024/04/01 05:56:15;;;;;;;;;18.00;11.33;;;;;20.27;42.82;98517.91;6276543;20;2808706;-43
2024/04/01 05:58:42;;;;;;;;;15.50;9.00;;;;;20.55;42.64;98520.06;6307044;20;2770116;-43
2024/04/01 06:01:10;;;;;;;;;13.00;9.00;;;;;21.24;41.11;98527.91;6280388;20;2769121;-43
2024/04/01 06:03:37;;;;;;;;;17.00;10.67;;;;;20.85;40.76;98539.16;6305460;20;3535833;-43
2024/04/01 06:06:05;;;;;;;;;19.33;10.33;;;;;20.60;41.67;98523.06;6271756;20;3553404;-45
2024/04/01 06:08:32;;;;;;;;;11.00;9.33;;;;;20.19;42.35;98539.81;6303629;20;3514954;-44
2024/04/01 06:11:03;;;;;;;;;11.33;8.33;;;;;20.46;41.72;98540.22;6305016;20;2771150;-44
2024/04/01 06:13:30;;;;;;;;;18.33;11.67;;;;;20.86;41.13;98535.41;6304840;20;3542972;-44
2024/04/01 06:15:57;;;;;;;;;13.33;6.33;;;;;20.74;41.47;98538.59;6269861;20;2770110;-44
2024/04/01 06:18:27;;;;;;;;;20.00;10.33;;;;;20.66;41.64;98540.56;6304781;20;2819284;-43
2024/04/01 06:20:54;;;;;;;;;18.33;9.67;;;;;20.67;41.32;98543.13;6305538;20;2475308;-44
2024/04/01 06:23:21;;;;;;;;;19.00;9.67;;;;;20.64;41.83;98540.75;6307252;20;2806678;-43
2024/04/01 06:25:49;;;;;;;;;13.67;9.33;;;;;20.88;41.77;98539.66;6308743;20;2787818;-46
2024/04/01 06:28:16;;;;;;;;;16.33;10.33;;;;;21.36;41.62;98541.94;6301138;20;3533596;-43
2024/04/01 06:30:43;;;;;;;;;16.67;12.00;;;;;21.86;40.17;98537.47;6273697;20;2811733;-44
2024/04/01 06:33:11;;;;;;;;;14.67;7.00;;;;;22.07;39.74;98534.72;6300772;20;3486741;-44
2024/04/01 06:35:38;;;;;;;;;22.67;12.67;;;;;21.82;39.86;98536.16;6301151;20;2467058;-44
2024/04/01 06:38:06;;;;;;;;;15.33;10.00;;;;;21.57;40.08;98538.44;6300346;20;3534766;-44
2024/04/01 06:40:37;;;;;;;;;11.67;7.33;;;;;22.02;40.06;98537.19;6273281;20;2768065;-44
2024/04/01 06:43:06;;;;;;;;;4.60;4.60;;;;;21.57;41.24;98536.53;6330659;20;2748203;-44
2024/04/01 06:45:33;;;;;;;;;14.33;11.00;;;;;21.65;40.83;98530.94;6272154;20;3531514;-43
2024/04/01 06:48:01;;;;;;;;;22.00;9.00;;;;;21.85;39.73;98522.09;6301673;20;3546105;-43
2024/04/01 06:50:28;;;;;;;;;20.00;9.67;;;;;21.99;39.57;98510.25;6272594;20;2475377;-44
2024/04/01 06:52:55;;;;;;;;;17.33;13.67;;;;;22.08;39.33;98498.13;6302171;20;3538856;-44
2024/04/01 06:55:23;;;;;;;;;24.33;8.33;;;;;22.07;38.73;98507.38;6271213;20;3532561;-43
2024/04/01 06:57:51;;;;;;;;;26.00;10.67;;;;;21.75;39.73;98486.06;6302194;20;2828509;-44
2024/04/01 07:00:19;;;;;;;;;18.67;7.33;;;;;22.26;38.86;98489.47;6304648;20;3528460;-43
2024/04/01 07:02:46;;;;;;;;;16.00;10.67;;;;;22.37;38.22;98500.91;6276447;20;2798291;-44
2024/04/01 07:05:13;;;;;;;;;15.00;11.67;;;;;22.48;38.43;98493.00;6302804;20;3532595;-44
2024/04/01 07:07:41;;;;;;;;;22.00;10.33;;;;;22.76;37.75;98495.69;6273746;20;2475280;-43
2024/04/01 07:10:08;;;;;;;;;18.33;9.33;;;;;22.86;37.15;98494.50;6306617;20;2475285;-44
2024/04/01 07:12:35;;;;;;;;;24.67;11.33;;;;;22.89;37.42;98486.72;6302931;20;2475275;-43
2024/04/01 07:15:03;;;;;;;;;15.33;10.33;;;;;22.72;37.30;98494.44;6305774;20;2473222;-45
2024/04/01 07:17:31;;;;;;;;;26.67;11.33;;;;;23.08;37.48;98503.47;6300922;20;2475285;-46
2024/04/01 07:19:58;;;;;;;;;16.33;10.67;;;;;23.03;37.21;98497.75;6293227;20;2477359;-45
2024/04/01 07:22:25;;;;;;;;;21.33;11.00;;;;;23.21;36.42;98487.94;6300192;20;2475317;-47
2024/04/01 07:24:53;;;;;;;;;18.67;12.67;;;;;24.19;36.47;98495.72;6301262;20;2477385;-47
2024/04/01 07:27:23;;;;;;;;;26.00;10.67;;;;;23.59;36.43;98484.69;6302828;20;2475759;-44
2024/04/01 07:29:50;;;;;;;;;14.33;8.67;;;;;23.58;37.04;98488.44;6301562;20;3502384;-45
2024/04/01 07:32:18;;;;;;;;;23.50;12.00;;;;;23.58;36.09;98493.94;6304914;20;2471318;-43
2024/04/01 07:34:45;;;;;;;;;17.33;8.67;;;;;24.00;36.24;98496.56;6301782;20;2475433;-44
2024/04/01 07:37:13;;;;;;;;;24.67;11.00;;;;;23.38;36.88;98487.56;6302415;20;2475290;-43
2024/04/01 07:39:41;;;;;;;;;23.00;9.67;;;;;23.36;36.52;98485.03;6301958;20;2473280;-46
2024/04/01 07:42:08;;;;;;;;;20.00;9.00;;;;;23.27;36.45;98497.22;6305484;20;2475381;-45
2024/04/01 07:44:35;;;;;;;;;15.67;8.67;;;;;23.35;36.79;98497.03;6306329;20;3521103;-44
2024/04/01 07:47:03;;;;;;;;;20.00;11.67;;;;;23.74;36.58;98497.38;6310373;20;2819108;-44
2024/04/01 07:49:30;;;;;;;;;27.50;9.00;;;;;23.71;35.87;98504.06;6305698;20;2813814;-46
2024/04/01 07:51:57;;;;;;;;;13.67;11.00;;;;;23.96;36.72;98511.72;6279450;20;2475304;-44
2024/04/01 07:54:26;;;;;;;;;15.33;11.00;;;;;23.65;36.45;98515.88;6308278;20;2477445;-43
2024/04/01 07:56:54;;;;;;;;;18.50;8.50;;;;;23.85;35.99;98526.91;6308674;20;2800338;-43
2024/04/01 07:59:22;;;;;;;;;11.33;5.00;;;;;23.65;36.79;98521.38;6275138;20;2782776;-47
2024/04/01 08:01:50;;;;;;;;;22.00;10.33;;;;;23.84;36.22;98520.59;6309203;20;3558594;-43
2024/04/01 08:04:17;;;;;;;;;21.50;11.50;;;;;23.97;36.53;98518.91;6275102;20;2836734;-43
2024/04/01 08:06:45;;;;;;;;;14.00;10.50;;;;;23.81;36.47;98531.97;6277857;20;2785741;-44
2024/04/01 08:09:12;;;;;;;;;14.50;9.50;;;;;23.76;35.97;98523.53;6307030;20;2770095;-44
2024/04/01 08:11:39;;;;;;;;;20.33;11.00;;;;;23.89;36.44;98522.69;6277763;20;2475310;-45
2024/04/01 08:14:07;;;;;;;;;21.50;13.00;;;;;24.10;35.87;98527.16;6305691;20;2825301;-44
2024/04/01 08:16:34;;;;;;;;;25.00;13.50;;;;;23.88;36.56;98524.59;6273999;20;2831584;-44
2024/04/01 08:19:02;;;;;;;;;26.00;11.00;;;;;24.31;35.94;98532.44;6272258;20;2829590;-44
2024/04/01 08:21:29;;;;;;;;;26.00;14.00;;;;;23.87;36.25;98535.75;6276982;20;2832722;-45
2024/04/01 08:23:56;;;;;;;;;16.00;13.33;;;;;24.24;35.95;98541.72;6278273;20;2481642;-45
2024/04/01 08:26:24;;;;;;;;;25.67;16.00;;;;;24.52;36.08;98527.81;6308812;20;2477511;-44
2024/04/01 08:28:52;;;;;;;;;19.50;12.50;;;;;24.63;35.05;98532.66;6305475;20;2824248;-45
2024/04/01 08:31:20;;;;;;;;;25.00;13.00;;;;;24.63;34.97;98529.91;6277621;20;2840068;-43
2024/04/01 08:33:47;;;;;;;;;20.00;12.00;;;;;24.88;34.90;98538.31;6309310;20;2822235;-43
2024/04/01 08:36:17;;;;;;;;;26.00;14.00;;;;;24.81;34.96;98522.91;6276764;20;2844057;-44
2024/04/01 08:38:45;;;;;;;;;23.50;14.00;;;;;25.35;34.31;98527.19;6276880;20;2831570;-45
2024/04/01 08:41:29;;;;;;;;;27.00;14.67;;;;;24.81;34.52;98525.66;6279631;20;2475359;-46
2024/04/01 08:44:16;;;;;;;;;29.33;16.00;;;;;25.27;34.57;98520.03;6308068;20;2841991;-50
2024/04/01 08:46:49;;;;;;;;;23.50;11.00;;;;;24.80;35.62;98512.97;6308184;20;2832767;-51
2024/04/01 08:49:46;;;;;;;;;27.67;14.33;;;;;25.24;34.95;98514.13;6274311;20;2477394;-48
2024/04/01 08:52:15;;;;;;;;;24.50;14.00;;;;;25.38;34.17;98511.13;6308710;20;2828518;-50
2024/04/01 08:54:44;;;;;;;;;29.67;16.00;;;;;25.87;34.15;98511.47;6276759;20;2849309;-46
2024/04/01 08:57:14;;;;;;;;;24.57;14.14;;;;;25.85;34.37;98516.34;6335745;20;3563868;-45
2024/04/01 08:59:43;;;;;;;;;23.33;14.67;;;;;25.26;33.76;98512.00;6275224;20;2837897;-45
2024/04/01 09:02:11;;;;;;;;;29.67;14.33;;;;;25.29;33.61;98506.06;6308299;20;2843149;-45
2024/04/01 09:04:38;;;;;;;;;25.50;16.50;;;;;25.51;34.31;98504.69;6307393;20;2831633;-45
2024/04/01 09:07:13;;;;;;;;;28.50;16.50;;;;;25.19;33.87;98517.53;6277752;20;2847220;-43
2024/04/01 09:09:40;;;;;;;;;28.00;14.00;;;;;25.65;34.22;98507.38;6278295;20;2845072;-44
2024/04/01 09:12:09;;;;;;;;;27.00;18.50;;;;;25.51;33.70;98518.41;6277419;20;2836823;-45
2024/04/01 09:14:37;;;;;;;;;20.67;11.00;;;;;25.58;34.41;98513.75;6275092;20;2475339;-48
2024/04/01 09:17:05;;;;;;;;;31.00;17.67;;;;;25.35;33.91;98519.78;6306187;20;2858691;-44
2024/04/01 09:19:32;;;;;;;;;31.67;18.33;;;;;25.31;34.55;98510.28;6309654;20;3599243;-44
2024/04/01 09:22:04;;;;;;;;;30.00;18.33;;;;;25.94;33.60;98503.19;6276159;20;2847183;-46
2024/04/01 09:24:33;;;;;;;;;26.33;14.00;;;;;25.63;33.37;98502.94;6306850;20;2847173;-46
2024/04/01 09:27:01;;;;;;;;;26.67;15.67;;;;;25.88;32.86;98501.31;6312878;20;3583612;-45
2024/04/01 09:29:31;;;;;;;;;20.67;11.67;;;;;26.02;32.52;98512.00;6274286;20;2475372;-46
2024/04/01 09:32:00;;;;;;;;;26.50;18.50;;;;;26.36;33.07;98501.56;6307727;20;2839866;-44
2024/04/01 09:34:32;;;;;;;;;35.00;24.33;;;;;26.92;32.36;98506.09;6276114;20;2881606;-48
2024/04/01 09:37:00;;;;;;;;;23.00;15.00;;;;;27.15;31.99;98510.09;6312898;20;3562811;-51
2024/04/01 09:39:28;;;;;;;;;30.00;16.67;;;;;26.61;31.68;98504.31;6273901;20;3592998;-52
2024/04/01 09:41:58;;;;;;;;;28.67;17.67;;;;;26.36;32.16;98501.56;6306994;20;2844139;-51
2024/04/01 09:44:25;;;;;;;;;28.00;16.00;;;;;26.52;32.41;98499.34;6306251;20;2732687;-54
2024/04/01 09:46:54;;;;;;;;;24.67;15.00;;;;;27.17;31.39;98509.84;6306588;20;2846196;-52
2024/04/01 09:49:22;;;;;;;;;34.67;16.67;;;;;27.43;30.99;98505.94;6307928;20;3598176;-52
2024/04/01 09:51:50;;;;;;;;;30.00;20.50;;;;;27.89;30.29;98504.50;6277020;20;2836889;-50
2024/04/01 09:54:18;;;;;;;;;32.67;19.33;;;;;27.99;30.38;98511.13;6277714;20;2844050;-50
2024/04/01 09:57:38;;;;;;;;;30.00;16.00;;;;;27.64;30.74;98497.16;6308830;20;2841001;-53
2024/04/01 10:00:18;;;;;;;;;27.67;17.67;;;;;27.64;29.62;98497.16;6270902;20;3587839;-54
2024/04/01 10:03:12;;;;;;;;;37.50;16.75;;;;;27.31;30.31;98498.47;6312425;20;3604536;-53
2024/04/01 10:06:01;;;;;;;;;28.33;17.00;;;;;27.92;29.96;98499.34;6307749;20;2828426;-52
2024/04/01 10:08:53;;;;;;;;;32.33;20.67;;;;;27.94;30.18;98493.59;6308579;20;3582683;-56
2024/04/01 10:12:03;;;;;;;;;35.67;16.00;;;;;28.05;29.64;98511.25;6276761;20;3592609;-53
2024/04/01 10:15:04;;;;;;;;;28.00;20.33;;;;;27.21;29.86;98509.19;6310267;20;3570068;-47
2024/04/01 10:17:45;;;;;;;;;29.67;15.00;;;;;27.97;29.22;98504.16;6275770;20;3582591;-51
2024/04/01 10:20:52;;;;;;;;;35.67;14.00;;;;;27.62;29.95;98499.34;6305792;20;2838404;-51
2024/04/01 10:24:12;;;;;;;;;26.33;16.33;;;;;27.54;30.09;98497.75;6308498;20;3586899;-51
2024/04/01 10:27:16;;;;;;;;;34.00;21.33;;;;;26.98;30.05;98489.75;6275228;20;2847264;-50
2024/04/01 10:30:42;;;;;;;;;35.50;21.50;;;;;27.92;28.78;98490.22;6309937;20;3590983;-51
2024/04/01 10:34:19;;;;;;;;;33.33;15.33;;;;;28.36;29.34;98488.03;6306101;20;3600249;-50
2024/04/01 10:37:36;;;;;;;;;27.00;19.00;;;;;27.92;29.26;98481.94;6311145;20;3570061;-49
2024/04/01 10:40:34;;;;;;;;;37.33;19.67;;;;;27.91;28.51;98466.44;6277592;20;1907621;-55
2024/04/01 10:43:43;;;;;;;;;34.00;19.67;;;;;27.76;28.48;98451.16;6309557;20;3577331;-53
2024/04/01 10:47:00;;;;;;;;;29.00;20.00;;;;;27.92;28.53;98454.34;6279288;20;3561728;-51
2024/04/01 10:50:20;;;;;;;;;27.67;17.67;;;;;28.09;28.41;98451.72;6269894;20;2847270;-54
2024/04/01 10:53:09;;;;;;;;;20.00;15.00;;;;;28.23;27.47;98455.97;6304996;20;2825303;-55
2024/04/01 10:56:04;;;;;;;;;38.33;19.67;;;;;28.15;27.98;98442.50;6274244;20;3600250;-53
2024/04/01 10:59:38;;;;;;;;;33.67;18.00;;;;;27.97;27.33;98448.97;6308556;20;3589859;-54
2024/04/01 11:02:53;;;;;;;;;33.67;19.33;;;;;28.24;27.61;98435.53;6273447;20;3593130;-54
2024/04/01 11:06:18;;;;;;;;;30.67;17.00;;;;;29.06;27.71;98432.72;6308461;20;3571086;-50
2024/04/01 11:09:21;;;;;;;;;32.67;17.00;;;;;28.60;26.93;98426.19;6273156;20;3605497;-51
2024/04/01 11:12:02;;;;;;;;;20.00;12.00;;;;;28.52;27.31;98414.69;6306752;20;2475360;-53
2024/04/01 11:14:31;;;;;;;;;26.50;19.50;;;;;28.27;27.33;98396.41;6303101;20;2830583;-54
2024/04/01 11:17:01;;;;;;;;;32.00;15.00;;;;;28.09;27.48;98400.13;6273160;20;2833738;-53
2024/04/01 11:20:11;;;;;;;;;28.00;16.33;;;;;28.33;26.90;98389.09;6279692;20;3586714;-53
2024/04/01 11:23:03;;;;;;;;;34.50;20.50;;;;;27.83;27.47;98398.66;6280812;20;2840916;-52
2024/04/01 11:26:12;;;;;;;;;33.33;18.33;;;;;28.23;27.05;98387.78;6278904;20;3599634;-48